Time;durP1;ratioP1;P1;durP2;ratioP2;P2;SDS_P1;SDS_P2;PMS_P1;PMS_P2;Temp;Humidity;BMP_temperature;BMP_pressure;BME280_temperature;BME280_humidity;BME280_pressure;Samples;Min_cycle;Max_cycle;Signal;HPM_P1;HPM_P2
2021/04/08 00:00:20;;;;;;;18.88;4.93;;;;;;;;;;5035440;28;20385;-82
2021/04/08 00:02:46;;;;;;;12.32;4.30;;;;;;;;;;5030398;28;20453;-83
2021/04/08 00:05:13;;;;;;;12.83;4.90;;;;;;;;;;5029931;28;20383;-80
2021/04/08 00:07:39;;;;;;;14.70;4.70;;;;;;;;;;5036995;28;20376;-82
2021/04/08 00:10:06;;;;;;;15.77;5.00;;;;;;;;;;5030539;28;20425;-85
2021/04/08 00:12:32;;;;;;;15.38;4.57;;;;;;;;;;5030306;28;20408;-86
2021/04/08 00:14:58;;;;;;;14.38;4.50;;;;;;;;;;5038901;28;20385;-82
2021/04/08 00:17:26;;;;;;;14.88;5.15;;;;;;;;;;5031863;28;20364;-82
2021/04/08 00:19:51;;;;;;;13.50;4.45;;;;;;;;;;5032632;28;20824;-85
2021/04/08 00:22:17;;;;;;;13.75;4.60;;;;;;;;;;5031998;28;20453;-85
2021/04/08 00:24:43;;;;;;;14.35;5.35;;;;;;;;;;5030374;28;20732;-80
2021/04/08 00:27:09;;;;;;;10.97;4.73;;;;;;;;;;5029877;28;20372;-87
2021/04/08 00:29:35;;;;;;;12.90;4.70;;;;;;;;;;5030774;28;20940;-85
2021/04/08 00:32:01;;;;;;;12.48;5.22;;;;;;;;;;5030722;28;20365;-85
2021/04/08 00:34:27;;;;;;;9.98;4.60;;;;;;;;;;5030591;28;20907;-80
2021/04/08 00:36:53;;;;;;;11.82;4.93;;;;;;;;;;5030542;28;20369;-85
2021/04/08 00:39:19;;;;;;;12.87;5.63;;;;;;;;;;5030204;28;20435;-83
2021/04/08 00:41:45;;;;;;;13.30;5.65;;;;;;;;;;5030453;28;20795;-86
2021/04/08 00:44:11;;;;;;;11.32;5.80;;;;;;;;;;5030702;28;20448;-83
2021/04/08 00:46:37;;;;;;;10.27;5.25;;;;;;;;;;5030455;28;20459;-79
2021/04/08 00:49:03;;;;;;;11.43;5.50;;;;;;;;;;5030071;28;21063;-85
2021/04/08 00:51:30;;;;;;;12.30;6.10;;;;;;;;;;5030612;28;20365;-86
2021/04/08 00:53:56;;;;;;;13.65;5.65;;;;;;;;;;5030320;28;21183;-86
2021/04/08 00:56:22;;;;;;;14.18;5.28;;;;;;;;;;5030469;28;20365;-85
2021/04/08 00:58:49;;;;;;;14.73;5.47;;;;;;;;;;5030042;28;20419;-84
2021/04/08 01:01:15;;;;;;;15.70;5.75;;;;;;;;;;5030347;28;20457;-85
2021/04/08 01:03:41;;;;;;;12.52;5.80;;;;;;;;;;5030285;28;20369;-82
2021/04/08 01:06:08;;;;;;;15.65;5.78;;;;;;;;;;5030431;28;20373;-85
2021/04/08 01:08:34;;;;;;;14.50;5.68;;;;;;;;;;5028268;28;20481;-82
2021/04/08 01:11:00;;;;;;;12.10;5.57;;;;;;;;;;5030237;28;20394;-86
2021/04/08 01:13:27;;;;;;;15.93;6.28;;;;;;;;;;5030268;28;20370;-86
2021/04/08 01:15:53;;;;;;;13.65;5.70;;;;;;;;;;5030135;28;20369;-84
2021/04/08 01:18:25;;;;;;;14.90;5.82;;;;;;;;;;5029864;28;20369;-84
2021/04/08 01:21:03;;;;;;;16.60;5.90;;;;;;;;;;5030257;28;20384;-83
2021/04/08 01:23:48;;;;;;;17.92;6.38;;;;;;;;;;5031016;28;20401;-85
2021/04/08 01:26:17;;;;;;;16.80;6.00;;;;;;;;;;5032619;28;20369;-85
2021/04/08 01:28:46;;;;;;;14.20;5.93;;;;;;;;;;5033260;28;20788;-81
2021/04/08 01:31:15;;;;;;;13.25;5.53;;;;;;;;;;5032447;28;20424;-80
2021/04/08 01:33:42;;;;;;;12.50;5.93;;;;;;;;;;5033478;28;20361;-84
2021/04/08 01:36:09;;;;;;;11.30;5.22;;;;;;;;;;5033663;28;20415;-82
2021/04/08 01:38:49;;;;;;;14.77;5.45;;;;;;;;;;5033159;28;20373;-82
2021/04/08 01:41:17;;;;;;;19.42;5.95;;;;;;;;;;5032355;28;20373;-85
2021/04/08 01:43:45;;;;;;;13.07;4.88;;;;;;;;;;5033481;28;20376;-83
2021/04/08 01:46:11;;;;;;;16.55;5.93;;;;;;;;;;5033449;28;20852;-82
2021/04/08 01:48:37;;;;;;;12.45;5.88;;;;;;;;;;5032957;28;20398;-85
2021/04/08 01:51:05;;;;;;;16.77;5.85;;;;;;;;;;5032499;28;20374;-87
2021/04/08 01:53:32;;;;;;;15.90;6.05;;;;;;;;;;5032175;28;20460;-80
2021/04/08 01:55:59;;;;;;;16.38;7.13;;;;;;;;;;5033245;28;20361;-86
2021/04/08 01:58:26;;;;;;;17.83;7.28;;;;;;;;;;5032760;28;20381;-84
2021/04/08 02:00:52;;;;;;;16.35;6.18;;;;;;;;;;5033633;28;20381;-83
2021/04/08 02:03:19;;;;;;;16.98;7.15;;;;;;;;;;5033173;28;20373;-85
2021/04/08 02:05:45;;;;;;;18.42;7.28;;;;;;;;;;5033144;28;20370;-84
2021/04/08 02:08:12;;;;;;;20.08;7.07;;;;;;;;;;5032524;28;20443;-81
2021/04/08 02:10:38;;;;;;;16.27;7.15;;;;;;;;;;5033143;28;20377;-82
2021/04/08 02:13:05;;;;;;;15.90;7.22;;;;;;;;;;5033608;28;20392;-84
2021/04/08 02:15:32;;;;;;;16.65;6.93;;;;;;;;;;5031950;28;20392;-83
2021/04/08 02:17:59;;;;;;;18.13;7.07;;;;;;;;;;5033232;28;20871;-82
2021/04/08 02:20:29;;;;;;;13.13;6.55;;;;;;;;;;5033392;28;20871;-85
2021/04/08 02:22:56;;;;;;;17.45;6.80;;;;;;;;;;5033608;28;20377;-85
2021/04/08 02:25:24;;;;;;;18.30;7.23;;;;;;;;;;5033140;28;20443;-82
2021/04/08 02:27:50;;;;;;;17.90;6.80;;;;;;;;;;5033131;28;20384;-81
2021/04/08 02:30:17;;;;;;;15.85;6.85;;;;;;;;;;5033352;28;20389;-86
2021/04/08 02:32:43;;;;;;;16.58;6.55;;;;;;;;;;5033276;28;20457;-83
2021/04/08 02:35:11;;;;;;;12.73;5.90;;;;;;;;;;5031521;28;20376;-83
2021/04/08 02:37:37;;;;;;;14.40;6.95;;;;;;;;;;5032741;28;20365;-82
2021/04/08 02:40:07;;;;;;;13.52;6.63;;;;;;;;;;5031630;28;20385;-86
2021/04/08 02:42:33;;;;;;;13.07;6.68;;;;;;;;;;5031447;28;20886;-83
2021/04/08 02:44:59;;;;;;;16.15;6.97;;;;;;;;;;5031621;28;20369;-85
2021/04/08 02:47:25;;;;;;;15.82;7.13;;;;;;;;;;5031087;28;20845;-83
2021/04/08 02:49:51;;;;;;;17.07;6.90;;;;;;;;;;5032555;28;20400;-82
2021/04/08 02:52:21;;;;;;;15.80;6.85;;;;;;;;;;5031632;28;20434;-83
2021/04/08 02:55:10;;;;;;;14.10;6.40;;;;;;;;;;5032612;28;20423;-89
2021/04/08 02:57:48;;;;;;;15.50;5.80;;;;;;;;;;5029121;28;20381;-86
2021/04/08 03:00:15;;;;;;;16.58;6.22;;;;;;;;;;5032979;28;20418;-82
2021/04/08 03:02:43;;;;;;;11.80;6.28;;;;;;;;;;5031349;28;20464;-82
2021/04/08 03:05:09;;;;;;;14.35;6.88;;;;;;;;;;5032495;28;20515;-83
2021/04/08 03:07:43;;;;;;;15.27;6.78;;;;;;;;;;5032007;28;21125;-79
2021/04/08 03:10:11;;;;;;;15.43;6.80;;;;;;;;;;5030895;28;20469;-80
2021/04/08 03:12:40;;;;;;;14.82;6.97;;;;;;;;;;5032314;28;20840;-81
2021/04/08 03:15:07;;;;;;;13.15;6.85;;;;;;;;;;5032111;28;20423;-84
2021/04/08 03:17:36;;;;;;;12.88;6.18;;;;;;;;;;5031255;28;20373;-85
2021/04/08 03:20:03;;;;;;;11.65;6.30;;;;;;;;;;5030591;28;20374;-81
2021/04/08 03:22:29;;;;;;;15.13;6.37;;;;;;;;;;5030653;28;20396;-84
2021/04/08 03:24:56;;;;;;;15.35;6.63;;;;;;;;;;5031820;28;20388;-82
2021/04/08 03:27:23;;;;;;;14.33;6.87;;;;;;;;;;5030128;28;20559;-83
2021/04/08 03:29:49;;;;;;;15.07;7.23;;;;;;;;;;5030575;28;20483;-80
2021/04/08 03:32:18;;;;;;;16.35;7.30;;;;;;;;;;5030530;28;20865;-81
2021/04/08 03:34:44;;;;;;;16.52;6.68;;;;;;;;;;5031766;28;20373;-80
2021/04/08 03:37:10;;;;;;;16.35;7.38;;;;;;;;;;5031261;28;20370;-84
2021/04/08 03:39:36;;;;;;;14.93;7.00;;;;;;;;;;5032776;28;20414;-78
2021/04/08 03:42:03;;;;;;;20.00;7.95;;;;;;;;;;5032788;28;20365;-77
2021/04/08 03:44:30;;;;;;;13.85;7.88;;;;;;;;;;5032229;28;20378;-80
2021/04/08 03:46:58;;;;;;;15.60;7.50;;;;;;;;;;5030493;28;20365;-79
2021/04/08 03:49:25;;;;;;;20.33;8.00;;;;;;;;;;5031586;28;20775;-81
2021/04/08 03:51:52;;;;;;;20.20;7.95;;;;;;;;;;5031617;28;20377;-79
2021/04/08 03:54:18;;;;;;;17.35;7.32;;;;;;;;;;5031219;28;20372;-82
2021/04/08 03:56:46;;;;;;;16.98;7.65;;;;;;;;;;5030224;28;20768;-80
2021/04/08 03:59:12;;;;;;;18.15;7.72;;;;;;;;;;5031366;28;20397;-79
2021/04/08 04:01:39;;;;;;;19.93;8.10;;;;;;;;;;5029804;28;20373;-82
2021/04/08 04:04:05;;;;;;;22.02;8.18;;;;;;;;;;5031197;28;20376;-80
2021/04/08 04:06:33;;;;;;;18.87;7.00;;;;;;;;;;5031328;28;20369;-83
2021/04/08 04:08:59;;;;;;;17.20;6.50;;;;;;;;;;5029407;28;20401;-83
2021/04/08 04:11:25;;;;;;;15.95;6.80;;;;;;;;;;5030044;28;20366;-81
2021/04/08 04:13:51;;;;;;;20.40;7.20;;;;;;;;;;5030956;28;20855;-80
2021/04/08 04:16:18;;;;;;;18.10;7.00;;;;;;;;;;5030748;28;20369;-84
2021/04/08 04:18:44;;;;;;;17.40;6.67;;;;;;;;;;5030276;28;20392;-78
2021/04/08 04:21:10;;;;;;;16.65;6.82;;;;;;;;;;5030790;28;20374;-80
2021/04/08 04:23:37;;;;;;;16.77;6.75;;;;;;;;;;5029911;28;20931;-78
2021/04/08 04:26:03;;;;;;;22.38;7.10;;;;;;;;;;5031289;28;20369;-78
2021/04/08 04:28:28;;;;;;;18.98;6.88;;;;;;;;;;5030466;28;20948;-82
2021/04/08 04:30:54;;;;;;;16.77;6.72;;;;;;;;;;5031873;28;20411;-81
2021/04/08 04:33:20;;;;;;;15.00;7.13;;;;;;;;;;5031951;28;20397;-77
2021/04/08 04:35:46;;;;;;;18.13;7.07;;;;;;;;;;5031579;28;20816;-78
2021/04/08 04:38:12;;;;;;;18.35;6.97;;;;;;;;;;5031060;28;20369;-81
2021/04/08 04:40:38;;;;;;;19.63;7.72;;;;;;;;;;5031136;28;20366;-82
2021/04/08 04:43:04;;;;;;;20.23;7.93;;;;;;;;;;5030768;28;20366;-84
2021/04/08 04:45:30;;;;;;;25.00;8.20;;;;;;;;;;5030927;28;20370;-79
2021/04/08 04:47:56;;;;;;;25.97;8.07;;;;;;;;;;5030182;28;20452;-82
2021/04/08 04:50:22;;;;;;;20.42;7.63;;;;;;;;;;5030551;28;20421;-82
2021/04/08 04:52:48;;;;;;;20.77;7.85;;;;;;;;;;5029148;28;20396;-81
2021/04/08 04:55:14;;;;;;;18.67;7.75;;;;;;;;;;5030566;28;20365;-80
2021/04/08 04:57:40;;;;;;;20.63;8.60;;;;;;;;;;5030988;28;20384;-78
2021/04/08 05:00:06;;;;;;;19.90;7.40;;;;;;;;;;5034297;28;20365;-82
2021/04/08 05:02:32;;;;;;;18.67;7.50;;;;;;;;;;5034355;28;20411;-82
2021/04/08 05:04:58;;;;;;;24.05;8.20;;;;;;;;;;5033087;28;20401;-80
2021/04/08 05:07:24;;;;;;;17.92;7.97;;;;;;;;;;5033896;28;20374;-78
2021/04/08 05:09:50;;;;;;;16.73;7.97;;;;;;;;;;5034125;28;20459;-80
2021/04/08 05:12:16;;;;;;;21.37;8.47;;;;;;;;;;5032947;28;20374;-81
2021/04/08 05:14:43;;;;;;;18.98;8.50;;;;;;;;;;5034180;28;20728;-85
2021/04/08 05:17:09;;;;;;;20.30;9.00;;;;;;;;;;5032597;28;20810;-83
2021/04/08 05:19:35;;;;;;;19.20;8.97;;;;;;;;;;5034709;28;20456;-80
2021/04/08 05:22:01;;;;;;;19.42;8.40;;;;;;;;;;5033977;28;20377;-80
2021/04/08 05:24:26;;;;;;;19.20;8.20;;;;;;;;;;5034183;28;20373;-83
2021/04/08 05:26:52;;;;;;;22.38;8.18;;;;;;;;;;5033653;28;20754;-81
2021/04/08 05:29:18;;;;;;;18.98;8.15;;;;;;;;;;5033548;28;20412;-84
2021/04/08 05:31:44;;;;;;;19.88;7.53;;;;;;;;;;5033663;28;20373;-82
2021/04/08 05:34:10;;;;;;;18.40;7.70;;;;;;;;;;5033908;28;20466;-85
2021/04/08 05:36:36;;;;;;;18.85;8.23;;;;;;;;;;5033883;28;20369;-81
2021/04/08 05:39:04;;;;;;;15.80;7.50;;;;;;;;;;5033648;28;20400;-84
2021/04/08 05:41:30;;;;;;;18.20;7.53;;;;;;;;;;5032711;28;20864;-82
2021/04/08 05:43:56;;;;;;;18.93;7.67;;;;;;;;;;5032672;28;20377;-81
2021/04/08 05:46:22;;;;;;;19.63;7.72;;;;;;;;;;5033916;28;20409;-84
2021/04/08 05:48:48;;;;;;;21.67;8.13;;;;;;;;;;5033056;28;20432;-83
2021/04/08 05:51:14;;;;;;;18.48;7.20;;;;;;;;;;5033695;28;20384;-87
2021/04/08 05:53:40;;;;;;;19.08;7.20;;;;;;;;;;5032470;28;20381;-82
2021/04/08 05:56:06;;;;;;;18.23;6.90;;;;;;;;;;5033192;28;20524;-85
2021/04/08 05:58:32;;;;;;;15.65;7.13;;;;;;;;;;5033050;28;20704;-83
2021/04/08 06:00:58;;;;;;;18.15;6.82;;;;;;;;;;5033550;28;20735;-80
2021/04/08 06:03:24;;;;;;;15.93;6.88;;;;;;;;;;5033154;28;20365;-82
2021/04/08 06:05:50;;;;;;;16.20;6.50;;;;;;;;;;5033348;28;20369;-82
2021/04/08 06:08:16;;;;;;;23.20;7.47;;;;;;;;;;5032757;28;20412;-82
2021/04/08 06:10:42;;;;;;;15.85;7.22;;;;;;;;;;5032522;28;20432;-82
2021/04/08 06:13:08;;;;;;;17.52;6.70;;;;;;;;;;5032178;28;20378;-81
2021/04/08 06:15:34;;;;;;;16.15;6.80;;;;;;;;;;5032992;28;20423;-82
2021/04/08 06:18:00;;;;;;;13.52;5.95;;;;;;;;;;5032662;28;20369;-84
2021/04/08 06:20:26;;;;;;;15.63;6.55;;;;;;;;;;5032813;28;20366;-80
2021/04/08 06:22:52;;;;;;;15.65;6.72;;;;;;;;;;5032697;28;20860;-81
2021/04/08 06:25:19;;;;;;;14.90;6.67;;;;;;;;;;5032835;28;20365;-84
2021/04/08 06:27:45;;;;;;;15.20;5.57;;;;;;;;;;5031163;28;20405;-84
2021/04/08 06:30:11;;;;;;;17.70;6.90;;;;;;;;;;5032852;28;20444;-84
2021/04/08 06:32:38;;;;;;;16.67;6.65;;;;;;;;;;5032596;28;20860;-81
2021/04/08 06:35:04;;;;;;;18.35;7.07;;;;;;;;;;5032524;28;20779;-82
2021/04/08 06:37:30;;;;;;;15.18;6.85;;;;;;;;;;5032401;28;20388;-79
2021/04/08 06:39:56;;;;;;;18.37;7.03;;;;;;;;;;5032580;28;20461;-87
2021/04/08 06:42:22;;;;;;;16.53;6.60;;;;;;;;;;5032589;28;20863;-82
2021/04/08 06:44:52;;;;;;;15.27;6.55;;;;;;;;;;5032850;28;20791;-83
2021/04/08 06:47:20;;;;;;;15.05;6.47;;;;;;;;;;5023046;28;20383;-83
2021/04/08 06:50:13;;;;;;;15.95;6.32;;;;;;;;;;5028616;28;20433;-89
2021/04/08 06:52:40;;;;;;;16.90;6.90;;;;;;;;;;5030943;28;20365;-89
2021/04/08 06:55:06;;;;;;;17.13;7.55;;;;;;;;;;5033106;28;20369;-91
2021/04/08 06:57:33;;;;;;;17.35;7.18;;;;;;;;;;5031086;28;20721;-89
2021/04/08 06:59:59;;;;;;;17.70;6.95;;;;;;;;;;5025375;28;20877;-84
2021/04/08 07:02:25;;;;;;;18.50;7.07;;;;;;;;;;5014115;28;20888;-82
2021/04/08 07:04:51;;;;;;;16.90;6.40;;;;;;;;;;5026688;28;20395;-86
2021/04/08 07:07:18;;;;;;;15.60;5.97;;;;;;;;;;5033383;28;20362;-83
2021/04/08 07:09:44;;;;;;;14.20;5.95;;;;;;;;;;5033249;28;20443;-81
2021/04/08 07:12:12;;;;;;;12.95;5.65;;;;;;;;;;5031140;28;20878;-82
2021/04/08 07:14:39;;;;;;;13.38;5.55;;;;;;;;;;5032357;28;20371;-87
2021/04/08 07:17:12;;;;;;;13.45;5.45;;;;;;;;;;5032120;28;20370;-87
2021/04/08 07:19:38;;;;;;;12.67;5.17;;;;;;;;;;5030931;28;20469;-83
2021/04/08 07:22:05;;;;;;;11.00;5.40;;;;;;;;;;5031608;28;20831;-86
2021/04/08 07:24:40;;;;;;;13.40;4.90;;;;;;;;;;5032376;28;20404;-81
2021/04/08 07:27:15;;;;;;;10.65;4.47;;;;;;;;;;5031089;28;20369;-84
2021/04/08 07:29:41;;;;;;;15.37;5.23;;;;;;;;;;5030389;28;20394;-83
2021/04/08 07:32:07;;;;;;;18.40;4.97;;;;;;;;;;5031645;28;20389;-81
2021/04/08 07:34:38;;;;;;;13.98;4.57;;;;;;;;;;5030802;28;20437;-82
2021/04/08 07:37:05;;;;;;;9.32;4.90;;;;;;;;;;5030726;28;20374;-83
2021/04/08 07:39:41;;;;;;;14.70;4.88;;;;;;;;;;5031972;28;20362;-81
2021/04/08 07:42:08;;;;;;;14.98;5.00;;;;;;;;;;5031776;28;20498;-82
2021/04/08 07:44:47;;;;;;;18.52;4.35;;;;;;;;;;5031312;28;20362;-81
2021/04/08 07:47:27;;;;;;;15.98;4.57;;;;;;;;;;5031530;28;20392;-80
2021/04/08 07:49:57;;;;;;;14.85;4.40;;;;;;;;;;5031807;28;20404;-80
2021/04/08 07:52:31;;;;;;;13.70;4.63;;;;;;;;;;5031353;28;20377;-81
2021/04/08 07:54:58;;;;;;;13.52;4.47;;;;;;;;;;5030933;28;20829;-84
2021/04/08 07:57:25;;;;;;;13.80;5.00;;;;;;;;;;5030026;28;20384;-80
2021/04/08 07:59:51;;;;;;;14.35;4.50;;;;;;;;;;5031243;28;20366;-85
2021/04/08 08:02:22;;;;;;;15.30;4.93;;;;;;;;;;5029419;28;20392;-84
2021/04/08 08:04:48;;;;;;;13.93;4.20;;;;;;;;;;5031260;28;20811;-79
2021/04/08 08:07:27;;;;;;;14.47;4.43;;;;;;;;;;5029916;28;20419;-82
2021/04/08 08:09:53;;;;;;;14.20;3.90;;;;;;;;;;5030799;28;20439;-80
2021/04/08 08:12:19;;;;;;;12.77;4.05;;;;;;;;;;5031156;28;20365;-83
2021/04/08 08:14:45;;;;;;;12.20;4.43;;;;;;;;;;5031317;28;20400;-82
2021/04/08 08:17:15;;;;;;;12.77;4.22;;;;;;;;;;5031053;28;20755;-80
2021/04/08 08:19:43;;;;;;;11.30;3.97;;;;;;;;;;5030777;28;20365;-82
2021/04/08 08:22:09;;;;;;;12.55;3.85;;;;;;;;;;5031015;28;20381;-84
2021/04/08 08:24:35;;;;;;;13.10;4.00;;;;;;;;;;5030934;28;20836;-84
2021/04/08 08:27:01;;;;;;;15.07;4.53;;;;;;;;;;5025750;28;20431;-83
2021/04/08 08:29:30;;;;;;;10.83;3.67;;;;;;;;;;5030005;28;20393;-84
2021/04/08 08:32:00;;;;;;;10.80;3.90;;;;;;;;;;5015998;28;20415;-82
2021/04/08 08:34:27;;;;;;;10.55;3.50;;;;;;;;;;5034460;28;20375;-87
2021/04/08 08:36:57;;;;;;;13.88;3.83;;;;;;;;;;5020129;28;20387;-80
2021/04/08 08:39:26;;;;;;;12.85;4.07;;;;;;;;;;5024691;28;20373;-83
2021/04/08 08:41:53;;;;;;;13.23;3.50;;;;;;;;;;5022674;28;20392;-84
2021/04/08 08:44:19;;;;;;;13.80;4.15;;;;;;;;;;5031575;28;20908;-85
2021/04/08 08:46:47;;;;;;;15.55;3.88;;;;;;;;;;5033380;28;20377;-86
2021/04/08 08:49:14;;;;;;;13.40;3.97;;;;;;;;;;5000080;28;20889;-84
2021/04/08 08:51:41;;;;;;;12.47;3.70;;;;;;;;;;5016282;28;20437;-82
2021/04/08 08:54:07;;;;;;;11.07;3.47;;;;;;;;;;5036845;28;20390;-83
2021/04/08 08:56:35;;;;;;;10.23;3.60;;;;;;;;;;5033612;28;20960;-84
2021/04/08 08:59:01;;;;;;;12.70;3.00;;;;;;;;;;5017247;28;20402;-82
2021/04/08 09:01:28;;;;;;;10.80;3.35;;;;;;;;;;5025535;28;20624;-82
2021/04/08 09:03:54;;;;;;;11.93;3.73;;;;;;;;;;5033668;28;20468;-82
2021/04/08 09:06:21;;;;;;;9.10;3.25;;;;;;;;;;5030334;28;20409;-83
2021/04/08 09:08:52;;;;;;;11.38;3.38;;;;;;;;;;5015532;28;20406;-84
2021/04/08 09:11:22;;;;;;;8.77;3.00;;;;;;;;;;5022046;28;20548;-81
2021/04/08 09:13:50;;;;;;;8.98;3.35;;;;;;;;;;5035383;28;20994;-82
2021/04/08 09:16:16;;;;;;;9.98;3.50;;;;;;;;;;5021040;28;20449;-81
2021/04/08 09:18:56;;;;;;;9.98;3.17;;;;;;;;;;5035773;28;20791;-86
2021/04/08 09:21:22;;;;;;;10.73;3.30;;;;;;;;;;5021055;28;20409;-83
2021/04/08 09:23:48;;;;;;;9.68;3.10;;;;;;;;;;5020517;28;20423;-81
2021/04/08 09:26:22;;;;;;;9.60;2.97;;;;;;;;;;5036521;28;20397;-82
2021/04/08 09:28:48;;;;;;;8.93;3.37;;;;;;;;;;5032240;28;20402;-82
2021/04/08 09:31:25;;;;;;;9.02;3.00;;;;;;;;;;5025334;28;20451;-84
2021/04/08 09:33:51;;;;;;;8.38;3.10;;;;;;;;;;5029090;28;20873;-80
2021/04/08 09:36:27;;;;;;;7.95;2.90;;;;;;;;;;5027085;28;20434;-87
2021/04/08 09:38:56;;;;;;;10.18;3.20;;;;;;;;;;5037157;28;20389;-85
2021/04/08 09:41:40;;;;;;;11.02;3.35;;;;;;;;;;5035922;28;20424;-85
2021/04/08 09:44:07;;;;;;;9.52;3.47;;;;;;;;;;5033391;28;20385;-82
2021/04/08 09:46:41;;;;;;;9.63;2.97;;;;;;;;;;5033601;28;20374;-83
2021/04/08 09:49:07;;;;;;;11.23;3.30;;;;;;;;;;5030434;28;20401;-80
2021/04/08 09:51:36;;;;;;;12.98;3.42;;;;;;;;;;5032992;28;20377;-81
2021/04/08 09:54:04;;;;;;;10.30;3.55;;;;;;;;;;5033180;28;20373;-82
2021/04/08 09:56:40;;;;;;;11.43;3.07;;;;;;;;;;5042283;28;20815;-81
2021/04/08 09:59:06;;;;;;;9.10;2.85;;;;;;;;;;5030111;28;20392;-82
2021/04/08 10:01:32;;;;;;;11.15;3.40;;;;;;;;;;5032164;28;20419;-83
2021/04/08 10:04:09;;;;;;;8.53;3.23;;;;;;;;;;5031786;28;20393;-86
2021/04/08 10:06:35;;;;;;;8.47;3.03;;;;;;;;;;5029697;28;20427;-82
2021/04/08 10:09:08;;;;;;;8.80;2.90;;;;;;;;;;5032120;28;20401;-84
2021/04/08 10:11:34;;;;;;;12.43;3.33;;;;;;;;;;5039275;28;20370;-84
2021/04/08 10:14:01;;;;;;;9.25;2.90;;;;;;;;;;5031439;28;20381;-82
2021/04/08 10:16:27;;;;;;;9.25;3.35;;;;;;;;;;5039339;28;20451;-82
2021/04/08 10:19:00;;;;;;;8.93;3.07;;;;;;;;;;5036413;28;20812;-81
2021/04/08 10:21:26;;;;;;;10.80;3.50;;;;;;;;;;5031521;28;20717;-83
2021/04/08 10:23:54;;;;;;;7.90;2.90;;;;;;;;;;5029409;28;20431;-84
2021/04/08 10:26:21;;;;;;;10.30;2.90;;;;;;;;;;5039823;28;20537;-86
2021/04/08 10:28:48;;;;;;;9.77;3.30;;;;;;;;;;5032212;28;20427;-81
2021/04/08 10:31:17;;;;;;;6.97;2.47;;;;;;;;;;5032416;28;20377;-84
2021/04/08 10:33:44;;;;;;;9.35;3.00;;;;;;;;;;5027659;28;20451;-84
2021/04/08 10:36:10;;;;;;;8.50;2.50;;;;;;;;;;5029197;28;20375;-84
2021/04/08 10:38:36;;;;;;;7.97;2.67;;;9.50;99.40;;;;;;5040565;28;20385;-82
2021/04/08 10:41:02;;;;;;;8.52;2.60;;;9.50;98.40;;;;;;5032190;28;20381;-82
2021/04/08 10:43:28;;;;;;;9.17;3.23;;;10.00;99.90;;;;;;5031024;28;20384;-82
2021/04/08 10:45:59;;;;;;;7.70;2.40;;;10.00;97.90;;;;;;5032182;28;20389;-80
2021/04/08 10:48:27;;;;;;;9.07;2.65;;;9.70;96.60;;;;;;5032323;28;20378;-82
2021/04/08 10:50:54;;;;;;;9.30;2.78;;;9.50;96.50;;;;;;5028041;28;20400;-83
2021/04/08 10:53:22;;;;;;;8.57;2.58;;;9.20;97.70;;;;;;5032706;28;20370;-81
2021/04/08 10:55:48;;;;;;;8.38;2.58;;;9.20;98.70;;;;;;5016414;28;20409;-83
2021/04/08 10:58:25;;;;;;;12.40;2.83;;;9.70;99.70;;;;;;5014803;28;20371;-84
2021/04/08 11:00:52;;;;;;;8.25;2.00;;;10.10;96.10;;;;;;5030918;28;20454;-81
2021/04/08 11:03:18;;;;;;;11.65;2.90;;;10.20;93.70;;;;;;5032027;28;20369;-80
2021/04/08 11:05:44;;;;;;;7.97;2.47;;;9.90;93.00;;;;;;5017192;28;20727;-82
2021/04/08 11:08:11;;;;;;;7.70;2.63;;;9.30;94.20;;;;;;5013921;28;20383;-84
2021/04/08 11:10:38;;;;;;;7.70;2.83;;;9.10;96.80;;;;;;5032478;28;20920;-82
2021/04/08 11:13:05;;;;;;;9.47;2.97;;;9.10;96.40;;;;;;5031023;28;20370;-79
2021/04/08 11:15:33;;;;;;;7.50;2.60;;;9.10;97.40;;;;;;5032415;28;20895;-80
2021/04/08 11:18:04;;;;;;;7.18;2.65;;;9.10;96.90;;;;;;5032514;28;20369;-80
2021/04/08 11:20:37;;;;;;;5.55;2.72;;;9.00;96.30;;;;;;5013001;28;20393;-80
2021/04/08 11:23:04;;;;;;;8.15;2.42;;;9.10;96.60;;;;;;5012411;28;20379;-82
2021/04/08 11:25:30;;;;;;;7.10;2.50;;;9.10;93.10;;;;;;5029961;28;20400;-80
2021/04/08 11:27:58;;;;;;;9.20;2.50;;;8.90;94.20;;;;;;5030835;28;20795;-79
2021/04/08 11:30:39;;;;;;;8.48;2.70;;;9.00;95.00;;;;;;5030293;28;20393;-81
2021/04/08 11:33:19;;;;;;;9.52;2.60;;;9.00;95.50;;;;;;5031764;28;20369;-82
2021/04/08 11:35:46;;;;;;;7.40;2.63;;;8.90;95.10;;;;;;5030973;28;20416;-82
2021/04/08 11:38:23;;;;;;;8.00;2.63;;;8.90;95.30;;;;;;5031246;28;20416;-81
2021/04/08 11:41:06;;;;;;;8.05;2.58;;;9.00;95.20;;;;;;5012004;28;20388;-81
2021/04/08 11:43:41;;;;;;;10.68;2.72;;;9.30;93.80;;;;;;5010193;28;20394;-81
2021/04/08 11:46:23;;;;;;;7.53;2.78;;;9.60;94.50;;;;;;5010605;28;20453;-82
2021/04/08 11:48:49;;;;;;;5.80;2.50;;;9.80;94.50;;;;;;5012391;28;20442;-82
2021/04/08 11:51:18;;;;;;;8.13;2.90;;;9.90;93.90;;;;;;5031593;28;20413;-82
2021/04/08 11:53:44;;;;;;;7.80;2.35;;;9.80;94.30;;;;;;5031477;28;20415;-80
2021/04/08 11:56:30;;;;;;;8.00;2.38;;;9.80;93.30;;;;;;5021550;28;20387;-82
2021/04/08 11:59:12;;;;;;;9.63;2.72;;;9.60;94.10;;;;;;5009971;28;20445;-79
2021/04/08 12:01:47;;;;;;;6.93;2.58;;;9.40;95.10;;;;;;5012566;28;20868;-79
2021/04/08 12:04:24;;;;;;;8.55;2.20;;;9.10;94.10;;;;;;5011733;28;20474;-80
2021/04/08 12:06:50;;;;;;;7.32;2.33;;;9.20;94.90;;;;;;5016184;28;20526;-83
2021/04/08 12:09:16;;;;;;;5.93;2.00;;;9.10;95.20;;;;;;5030070;28;20429;-80
2021/04/08 12:11:50;;;;;;;5.68;1.75;;;9.30;92.90;;;;;;5010953;28;20425;-80
2021/04/08 12:14:16;;;;;;;7.35;2.33;;;9.30;92.80;;;;;;5010536;28;20841;-84
2021/04/08 12:16:42;;;;;;;4.75;1.65;;;9.10;92.20;;;;;;5030384;28;20416;-81
2021/04/08 12:19:08;;;;;;;5.37;2.27;;;9.20;93.50;;;;;;5029766;28;20421;-84
2021/04/08 12:21:34;;;;;;;6.70;2.50;;;9.10;93.70;;;;;;5015382;28;20476;-81
2021/04/08 12:24:08;;;;;;;8.57;2.20;;;9.10;94.40;;;;;;5030015;28;20459;-81
2021/04/08 12:26:36;;;;;;;9.90;2.63;;;9.10;95.00;;;;;;5030165;28;20396;-81
2021/04/08 12:29:03;;;;;;;8.25;2.35;;;9.20;95.20;;;;;;5031588;28;20871;-82
2021/04/08 12:31:29;;;;;;;6.70;2.30;;;9.20;94.80;;;;;;5030420;28;20401;-82
2021/04/08 12:33:54;;;;;;;8.68;2.78;;;9.30;94.00;;;;;;5030853;28;20374;-84
2021/04/08 12:36:20;;;;;;;7.93;2.50;;;9.10;93.80;;;;;;5030242;28;20747;-83
2021/04/08 12:38:46;;;;;;;7.07;2.00;;;8.90;94.60;;;;;;5031157;28;20377;-85
2021/04/08 12:41:11;;;;;;;8.95;2.55;;;8.90;95.40;;;;;;5028770;28;20389;-79
2021/04/08 12:43:38;;;;;;;6.82;2.47;;;8.90;94.50;;;;;;5030870;28;20377;-77
2021/04/08 12:46:04;;;;;;;6.82;2.08;;;9.00;96.90;;;;;;5030340;28;20503;-81
2021/04/08 12:48:30;;;;;;;7.50;2.33;;;9.20;95.80;;;;;;5028254;28;20401;-82
2021/04/08 12:50:57;;;;;;;8.40;2.20;;;9.40;93.60;;;;;;5025080;28;20423;-82
2021/04/08 12:53:24;;;;;;;10.68;2.70;;;9.50;94.10;;;;;;5030381;28;20374;-85
2021/04/08 12:55:55;;;;;;;9.65;2.70;;;9.70;94.10;;;;;;5029709;28;20377;-82
2021/04/08 12:58:21;;;;;;;8.25;2.70;;;9.50;93.40;;;;;;5029750;28;20378;-80
2021/04/08 13:00:48;;;;;;;8.63;3.08;;;9.30;94.50;;;;;;5030840;28;20369;-83
2021/04/08 13:03:14;;;;;;;8.60;2.42;;;9.20;95.40;;;;;;5012499;28;20382;-83
2021/04/08 13:05:41;;;;;;;8.00;2.95;;;9.10;95.50;;;;;;5011073;28;20371;-81
2021/04/08 13:08:08;;;;;;;9.90;2.88;;;9.20;96.00;;;;;;5026236;28;20404;-83
2021/04/08 13:10:36;;;;;;;10.63;3.03;;;9.40;95.90;;;;;;5029319;28;20397;-83
2021/04/08 13:13:03;;;;;;;5.97;2.45;;;9.50;96.20;;;;;;5025818;28;20381;-82
2021/04/08 13:15:29;;;;;;;8.63;2.45;;;9.70;96.10;;;;;;5029593;28;20875;-81
2021/04/08 13:18:07;;;;;;;7.43;2.55;;;9.60;96.00;;;;;;5028367;28;20388;-84
2021/04/08 13:20:35;;;;;;;11.00;2.45;;;9.70;95.50;;;;;;5031032;28;20472;-79
2021/04/08 13:23:02;;;;;;;8.32;2.33;;;9.60;95.00;;;;;;5026764;28;20409;-82
2021/04/08 13:25:28;;;;;;;7.22;2.35;;;9.60;95.20;;;;;;5019924;28;20399;-82
2021/04/08 13:27:54;;;;;;;9.25;2.33;;;9.70;95.10;;;;;;5014945;28;20410;-79
2021/04/08 13:30:23;;;;;;;6.82;2.47;;;9.70;93.70;;;;;;5014808;28;20399;-80
2021/04/08 13:32:49;;;;;;;7.40;2.20;;;9.70;94.50;;;;;;5014753;28;20382;-79
2021/04/08 13:35:37;;;;;;;8.23;1.97;;;9.60;93.40;;;;;;5020414;28;20373;-81
2021/04/08 13:38:04;;;;;;;5.38;1.95;;;9.40;91.70;;;;;;5026800;28;20464;-84
2021/04/08 13:40:30;;;;;;;8.38;2.40;;;9.30;92.40;;;;;;5034374;28;20728;-80
2021/04/08 13:42:56;;;;;;;8.73;2.47;;;9.10;91.70;;;;;;5035292;28;20773;-85
2021/04/08 13:45:25;;;;;;;6.82;2.08;;;8.90;92.10;;;;;;5020225;28;20495;-85
2021/04/08 13:48:03;;;;;;;6.43;2.40;;;8.80;93.90;;;;;;5012183;28;20999;-84
2021/04/08 13:50:28;;;;;;;6.53;2.00;;;8.90;94.40;;;;;;5027821;28;20398;-84
2021/04/08 13:56:03;;;;;;;6.43;2.20;;;9.10;94.70;;;;;;5031944;28;20385;-83
2021/04/08 13:58:29;;;;;;;4.67;2.10;;;9.20;94.60;;;;;;5029928;28;20385;-82
2021/04/08 14:00:55;;;;;;;7.07;2.17;;;9.20;94.60;;;;;;5024444;28;20394;-82
2021/04/08 14:04:08;;;;;;;6.50;1.83;;;9.20;94.20;;;;;;5014695;28;20384;-82
2021/04/08 14:06:37;;;;;;;6.35;2.05;;;9.30;94.00;;;;;;4956065;28;20387;-82
2021/04/08 14:09:08;;;;;;;5.38;2.00;;;9.10;93.40;;;;;;4957553;28;20492;-81
2021/04/08 14:11:36;;;;;;;5.05;2.10;;;9.00;93.00;;;;;;5013563;28;20382;-81
2021/04/08 14:14:03;;;;;;;5.85;2.03;;;8.90;93.30;;;;;;5031578;28;20388;-81